tititudorancea.com
Station Historical Data
Daily Summary for January 10, 2019 Units:  Both    English   Metric
« Previous Day
Next Day »
Daily Weekly Monthly Yearly Custom
  High: Low: Average:
Temperature: TemperatureF °F /  -17.8 °C 44.7 °F /  7.1 °C 58.7 °F /  14.8 °C
Dew Point: DewpointF °F /  -17.8 °C 38.1 °F /  3.4 °C 42 °F /  5.6 °C
Humidity: Humidity % 26 % 58 %
Wind Speed: WindSpeedMPH mph /  0 km/h - 7.1 mph /  11.4 km/h
Wind Gust: WindSpeedGustMPH mph /  0 km/h - -
Wind:- - South
Pressure: PressureIn in /  0 hPa 29.96 in /  1014.4 hPa -
Precipitation: 0.00 in /  0 mm    
Historical Graphs
 
 
Ararat weather Find more about Weather in Ararat, AU


 



 


Tabular Data for January 10, 2019
Time Temperature Dew Point Pressure Wind Wind Speed Wind Gust Humidity Rainfall Rate (Hourly)
TemperatureF °F /  -17.8 °C DewpointF °F /  -17.8 °C PressureIn in /  0 hPa Calm     Humidity % HourlyPrecipIn in /  0 mm
00:04 51.9 °F /  11.1 °C 42.0 °F /  5.6 °C 30.06 in /  1017.8 hPa South 7.0 mph /  11.3 km/h 4.4 mph /  7.1 km/h 69 % 0.00 in /  0 mm
00:09 51.7 °F /  10.9 °C 41.9 °F /  5.5 °C 30.06 in /  1017.8 hPa South 5.0 mph /  8 km/h 3.0 mph /  4.8 km/h 69 % 0.00 in /  0 mm
00:14 51.4 °F /  10.8 °C 41.9 °F /  5.5 °C 30.06 in /  1017.8 hPa South 8.1 mph /  13 km/h 5.0 mph /  8 km/h 70 % 0.00 in /  0 mm
00:19 51.3 °F /  10.7 °C 41.8 °F /  5.4 °C 30.06 in /  1017.8 hPa North 6.9 mph /  11.1 km/h 4.3 mph /  6.9 km/h 70 % 0.00 in /  0 mm
00:24 51.1 °F /  10.6 °C 41.7 °F /  5.4 °C 30.05 in /  1017.5 hPa South 6.9 mph /  11.1 km/h 3.4 mph /  5.5 km/h 70 % 0.00 in /  0 mm
00:29 51.0 °F /  10.6 °C 41.9 °F /  5.5 °C 30.05 in /  1017.5 hPa South 8.1 mph /  13 km/h 5.0 mph /  8 km/h 71 % 0.00 in /  0 mm
00:34 50.9 °F /  10.5 °C 41.8 °F /  5.4 °C 30.05 in /  1017.5 hPa South 6.0 mph /  9.7 km/h 2.9 mph /  4.7 km/h 71 % 0.00 in /  0 mm
00:39 50.8 °F /  10.4 °C 41.7 °F /  5.4 °C 30.05 in /  1017.5 hPa South 6.0 mph /  9.7 km/h 3.8 mph /  6.1 km/h 71 % 0.00 in /  0 mm
00:44 50.6 °F /  10.3 °C 41.5 °F /  5.3 °C 30.05 in /  1017.5 hPa North 3.5 mph /  5.6 km/h 2.4 mph /  3.9 km/h 71 % 0.00 in /  0 mm
00:49 50.5 °F /  10.3 °C 41.8 °F /  5.4 °C 30.05 in /  1017.5 hPa South 3.5 mph /  5.6 km/h 1.5 mph /  2.4 km/h 72 % 0.00 in /  0 mm
00:54 50.3 °F /  10.2 °C 41.6 °F /  5.3 °C 30.05 in /  1017.5 hPa South 4.6 mph /  7.4 km/h 2.7 mph /  4.3 km/h 72 % 0.00 in /  0 mm
00:59 50.2 °F /  10.1 °C 41.5 °F /  5.3 °C 30.05 in /  1017.5 hPa South 3.5 mph /  5.6 km/h 0.1 mph /  0.2 km/h 72 % 0.00 in /  0 mm
01:04 50.1 °F /  10.1 °C 41.8 °F /  5.4 °C 30.05 in /  1017.5 hPa North 6.9 mph /  11.1 km/h 3.8 mph /  6.1 km/h 73 % 0.00 in /  0 mm
01:09 50.0 °F /  10 °C 41.7 °F /  5.4 °C 30.05 in /  1017.5 hPa North 3.5 mph /  5.6 km/h 2.5 mph /  4 km/h 73 % 0.00 in /  0 mm
01:14 49.8 °F /  9.9 °C 41.5 °F /  5.3 °C 30.05 in /  1017.5 hPa South 5.8 mph /  9.3 km/h 1.2 mph /  1.9 km/h 73 % 0.00 in /  0 mm
01:19 49.8 °F /  9.9 °C 41.8 °F /  5.4 °C 30.05 in /  1017.5 hPa South 5.8 mph /  9.3 km/h 3.0 mph /  4.8 km/h 74 % 0.00 in /  0 mm
01:24 49.7 °F /  9.8 °C 41.7 °F /  5.4 °C 30.05 in /  1017.5 hPa North 5.8 mph /  9.3 km/h 3.6 mph /  5.8 km/h 74 % 0.00 in /  0 mm
01:29 49.7 °F /  9.8 °C 42.1 °F /  5.6 °C 30.05 in /  1017.5 hPa North 8.1 mph /  13 km/h 6.8 mph /  10.9 km/h 75 % 0.00 in /  0 mm
01:34 49.7 °F /  9.8 °C 42.1 °F /  5.6 °C 30.05 in /  1017.5 hPa South 8.1 mph /  13 km/h 5.0 mph /  8 km/h 75 % 0.00 in /  0 mm
01:39 49.7 °F /  9.8 °C 42.1 °F /  5.6 °C 30.05 in /  1017.5 hPa South 3.5 mph /  5.6 km/h 2.9 mph /  4.7 km/h 75 % 0.00 in /  0 mm
01:44 49.5 °F /  9.7 °C 41.6 °F /  5.3 °C 30.05 in /  1017.5 hPa North 5.8 mph /  9.3 km/h 2.5 mph /  4 km/h 74 % 0.00 in /  0 mm
01:49 49.2 °F /  9.6 °C 41.6 °F /  5.3 °C 30.05 in /  1017.5 hPa South 3.5 mph /  5.6 km/h 1.9 mph /  3.1 km/h 75 % 0.00 in /  0 mm
01:54 48.8 °F /  9.3 °C 41.6 °F /  5.3 °C 30.05 in /  1017.5 hPa South 5.8 mph /  9.3 km/h 2.8 mph /  4.5 km/h 76 % 0.00 in /  0 mm
01:59 48.6 °F /  9.2 °C 41.4 °F /  5.2 °C 30.05 in /  1017.5 hPa South 3.5 mph /  5.6 km/h 1.6 mph /  2.6 km/h 76 % 0.00 in /  0 mm
02:04 48.4 °F /  9.1 °C 41.5 °F /  5.3 °C 30.05 in /  1017.5 hPa South 4.6 mph /  7.4 km/h 3.8 mph /  6.1 km/h 77 % 0.00 in /  0 mm
02:09 48.2 °F /  9 °C 41.7 °F /  5.4 °C 30.05 in /  1017.5 hPa South 5.8 mph /  9.3 km/h 2.2 mph /  3.5 km/h 78 % 0.00 in /  0 mm
02:14 48.0 °F /  8.9 °C 41.5 °F /  5.3 °C 30.05 in /  1017.5 hPa South 4.0 mph /  6.4 km/h 2.0 mph /  3.2 km/h 78 % 0.00 in /  0 mm
02:19 47.8 °F /  8.8 °C 41.3 °F /  5.2 °C 30.05 in /  1017.5 hPa South 3.5 mph /  5.6 km/h 3.1 mph /  5 km/h 78 % 0.00 in /  0 mm
02:24 47.7 °F /  8.7 °C 41.5 °F /  5.3 °C 30.05 in /  1017.5 hPa South 2.3 mph /  3.7 km/h 2.2 mph /  3.5 km/h 79 % 0.00 in /  0 mm
02:29 47.5 °F /  8.6 °C 41.3 °F /  5.2 °C 30.05 in /  1017.5 hPa South 3.5 mph /  5.6 km/h 2.4 mph /  3.9 km/h 79 % 0.00 in /  0 mm
02:34 47.4 °F /  8.6 °C 41.2 °F /  5.1 °C 30.05 in /  1017.5 hPa South 3.5 mph /  5.6 km/h 1.8 mph /  2.9 km/h 79 % 0.00 in /  0 mm
02:39 47.3 °F /  8.5 °C 41.1 °F /  5.1 °C 30.05 in /  1017.5 hPa South 4.6 mph /  7.4 km/h 3.6 mph /  5.8 km/h 79 % 0.00 in /  0 mm
02:44 47.2 °F /  8.4 °C 41.3 °F /  5.2 °C 30.05 in /  1017.5 hPa South 5.8 mph /  9.3 km/h 4.7 mph /  7.6 km/h 80 % 0.00 in /  0 mm
02:49 47.1 °F /  8.4 °C 41.2 °F /  5.1 °C 30.05 in /  1017.5 hPa South 4.6 mph /  7.4 km/h 2.4 mph /  3.9 km/h 80 % 0.00 in /  0 mm
02:54 47.1 °F /  8.4 °C 41.6 °F /  5.3 °C 30.05 in /  1017.5 hPa North 2.3 mph /  3.7 km/h 1.1 mph /  1.8 km/h 81 % 0.00 in /  0 mm
02:59 46.9 °F /  8.3 °C 41.1 °F /  5.1 °C 30.05 in /  1017.5 hPa South 3.5 mph /  5.6 km/h 1.5 mph /  2.4 km/h 80 % 0.00 in /  0 mm
03:04 46.8 °F /  8.2 °C 41.3 °F /  5.2 °C 30.04 in /  1017.2 hPa North 3.5 mph /  5.6 km/h 2.3 mph /  3.7 km/h 81 % 0.00 in /  0 mm
03:09 46.7 °F /  8.2 °C 41.2 °F /  5.1 °C 30.04 in /  1017.2 hPa South 3.5 mph /  5.6 km/h 2.8 mph /  4.5 km/h 81 % 0.00 in /  0 mm
03:14 46.6 °F /  8.1 °C 41.1 °F /  5.1 °C 30.04 in /  1017.2 hPa South 4.6 mph /  7.4 km/h 2.5 mph /  4 km/h 81 % 0.00 in /  0 mm
03:19 46.5 °F /  8.1 °C 41.0 °F /  5 °C 30.04 in /  1017.2 hPa North 3.5 mph /  5.6 km/h 2.3 mph /  3.7 km/h 81 % 0.00 in /  0 mm
03:24 46.5 °F /  8.1 °C 41.3 °F /  5.2 °C 30.04 in /  1017.2 hPa South 5.8 mph /  9.3 km/h 3.0 mph /  4.8 km/h 82 % 0.00 in /  0 mm
03:29 46.4 °F /  8 °C 41.2 °F /  5.1 °C 30.04 in /  1017.2 hPa South 3.0 mph /  4.8 km/h 1.6 mph /  2.6 km/h 82 % 0.00 in /  0 mm
03:34 46.4 °F /  8 °C 41.2 °F /  5.1 °C 30.04 in /  1017.2 hPa North 3.5 mph /  5.6 km/h 3.2 mph /  5.1 km/h 82 % 0.00 in /  0 mm
03:39 46.3 °F /  7.9 °C 41.1 °F /  5.1 °C 30.03 in /  1016.8 hPa South 4.6 mph /  7.4 km/h 3.7 mph /  6 km/h 82 % 0.00 in /  0 mm
03:44 46.3 °F /  7.9 °C 41.4 °F /  5.2 °C 30.03 in /  1016.8 hPa South 4.0 mph /  6.4 km/h 2.6 mph /  4.2 km/h 83 % 0.00 in /  0 mm
03:49 46.3 °F /  7.9 °C 41.4 °F /  5.2 °C 30.03 in /  1016.8 hPa North 3.5 mph /  5.6 km/h 2.6 mph /  4.2 km/h 83 % 0.00 in /  0 mm
03:54 46.3 °F /  7.9 °C 41.4 °F /  5.2 °C 30.03 in /  1016.8 hPa South 4.6 mph /  7.4 km/h 2.7 mph /  4.3 km/h 83 % 0.00 in /  0 mm
03:59 46.3 °F /  7.9 °C 41.4 °F /  5.2 °C 30.02 in /  1016.5 hPa South 3.5 mph /  5.6 km/h 2.1 mph /  3.4 km/h 83 % 0.00 in /  0 mm
04:04 46.3 °F /  7.9 °C 41.4 °F /  5.2 °C 30.02 in /  1016.5 hPa North 5.8 mph /  9.3 km/h 3.3 mph /  5.3 km/h 83 % 0.00 in /  0 mm
04:09 46.2 °F /  7.9 °C 41.3 °F /  5.2 °C 30.03 in /  1016.8 hPa South 3.5 mph /  5.6 km/h 3.3 mph /  5.3 km/h 83 % 0.00 in /  0 mm
04:14 46.2 °F /  7.9 °C 41.3 °F /  5.2 °C 30.03 in /  1016.8 hPa South 2.3 mph /  3.7 km/h 1.2 mph /  1.9 km/h 83 % 0.00 in /  0 mm
04:19 46.2 °F /  7.9 °C 41.3 °F /  5.2 °C 30.03 in /  1016.8 hPa South 3.5 mph /  5.6 km/h 1.0 mph /  1.6 km/h 83 % 0.00 in /  0 mm
04:24 46.3 °F /  7.9 °C 41.4 °F /  5.2 °C 30.03 in /  1016.8 hPa South 4.6 mph /  7.4 km/h 1.6 mph /  2.6 km/h 83 % 0.00 in /  0 mm
04:29 46.3 °F /  7.9 °C 41.4 °F /  5.2 °C 30.02 in /  1016.5 hPa North 2.3 mph /  3.7 km/h 0.7 mph /  1.1 km/h 83 % 0.00 in /  0 mm
04:34 46.2 °F /  7.9 °C 41.3 °F /  5.2 °C 30.03 in /  1016.8 hPa South 2.3 mph /  3.7 km/h 1.2 mph /  1.9 km/h 83 % 0.00 in /  0 mm
04:39 46.0 °F /  7.8 °C 40.8 °F /  4.9 °C 30.03 in /  1016.8 hPa South 1.2 mph /  1.9 km/h   82 % 0.00 in /  0 mm
04:44 45.8 °F /  7.7 °C 40.9 °F /  4.9 °C 30.03 in /  1016.8 hPa Calm     83 % 0.00 in /  0 mm
04:49 45.7 °F /  7.6 °C 40.8 °F /  4.9 °C 30.03 in /  1016.8 hPa Calm     83 % 0.00 in /  0 mm
04:54 45.5 °F /  7.5 °C 40.6 °F /  4.8 °C 30.03 in /  1016.8 hPa Calm     83 % 0.00 in /  0 mm
04:59 45.4 °F /  7.4 °C 40.5 °F /  4.7 °C 30.04 in /  1017.2 hPa Calm     83 % 0.00 in /  0 mm
05:04 45.2 °F /  7.3 °C 40.7 °F /  4.8 °C 30.04 in /  1017.2 hPa Calm     84 % 0.00 in /  0 mm
05:09 44.9 °F /  7.2 °C 40.4 °F /  4.7 °C 30.03 in /  1016.8 hPa North 2.3 mph /  3.7 km/h 1.5 mph /  2.4 km/h 84 % 0.00 in /  0 mm
05:14 44.8 °F /  7.1 °C 40.6 °F /  4.8 °C 30.04 in /  1017.2 hPa South 2.3 mph /  3.7 km/h 1.5 mph /  2.4 km/h 85 % 0.00 in /  0 mm
05:19 44.8 °F /  7.1 °C 40.6 °F /  4.8 °C 30.04 in /  1017.2 hPa South 4.6 mph /  7.4 km/h 2.6 mph /  4.2 km/h 85 % 0.00 in /  0 mm
05:24 44.8 °F /  7.1 °C 40.9 °F /  4.9 °C 30.04 in /  1017.2 hPa North 4.6 mph /  7.4 km/h 2.2 mph /  3.5 km/h 86 % 0.00 in /  0 mm
05:29 45.1 °F /  7.3 °C 41.2 °F /  5.1 °C 30.03 in /  1016.8 hPa North 3.5 mph /  5.6 km/h 3.3 mph /  5.3 km/h 86 % 0.00 in /  0 mm
05:34 45.3 °F /  7.4 °C 41.4 °F /  5.2 °C 30.04 in /  1017.2 hPa South 4.6 mph /  7.4 km/h 3.1 mph /  5 km/h 86 % 0.00 in /  0 mm
05:39 45.5 °F /  7.5 °C 41.3 °F /  5.2 °C 30.04 in /  1017.2 hPa South 4.6 mph /  7.4 km/h 4.2 mph /  6.8 km/h 85 % 0.00 in /  0 mm
05:44 45.8 °F /  7.7 °C 41.5 °F /  5.3 °C 30.04 in /  1017.2 hPa South 5.0 mph /  8 km/h 2.5 mph /  4 km/h 85 % 0.00 in /  0 mm
05:49 45.9 °F /  7.7 °C 41.6 °F /  5.3 °C 30.04 in /  1017.2 hPa South 4.6 mph /  7.4 km/h 3.3 mph /  5.3 km/h 85 % 0.00 in /  0 mm
05:54 46.1 °F /  7.8 °C 41.8 °F /  5.4 °C 30.03 in /  1016.8 hPa South 5.8 mph /  9.3 km/h 5.7 mph /  9.2 km/h 85 % 0.00 in /  0 mm
05:59 46.3 °F /  7.9 °C 41.7 °F /  5.4 °C 30.03 in /  1016.8 hPa South 4.6 mph /  7.4 km/h 4.3 mph /  6.9 km/h 84 % 0.00 in /  0 mm
06:04 46.3 °F /  7.9 °C 41.7 °F /  5.4 °C 30.04 in /  1017.2 hPa South 4.6 mph /  7.4 km/h 2.7 mph /  4.3 km/h 84 % 0.00 in /  0 mm
06:09 46.3 °F /  7.9 °C 41.4 °F /  5.2 °C 30.04 in /  1017.2 hPa South 3.5 mph /  5.6 km/h 1.0 mph /  1.6 km/h 83 % 0.00 in /  0 mm
06:14 46.2 °F /  7.9 °C 41.3 °F /  5.2 °C 30.05 in /  1017.5 hPa South 2.3 mph /  3.7 km/h 1.1 mph /  1.8 km/h 83 % 0.00 in /  0 mm
06:19 46.0 °F /  7.8 °C 41.1 °F /  5.1 °C 30.05 in /  1017.5 hPa South 2.3 mph /  3.7 km/h 1.4 mph /  2.3 km/h 83 % 0.00 in /  0 mm
06:24 45.6 °F /  7.6 °C 40.7 °F /  4.8 °C 30.05 in /  1017.5 hPa South 1.2 mph /  1.9 km/h   83 % 0.00 in /  0 mm
06:29 45.3 °F /  7.4 °C 40.7 °F /  4.8 °C 30.06 in /  1017.8 hPa Calm     84 % 0.00 in /  0 mm
06:34 45.1 °F /  7.3 °C 40.6 °F /  4.8 °C 30.06 in /  1017.8 hPa Calm     84 % 0.00 in /  0 mm
06:39 44.9 °F /  7.2 °C 40.4 °F /  4.7 °C 30.07 in /  1018.2 hPa Calm     84 % 0.00 in /  0 mm
06:44 44.7 °F /  7.1 °C 40.5 °F /  4.7 °C 30.07 in /  1018.2 hPa Calm     85 % 0.00 in /  0 mm
06:49 44.8 °F /  7.1 °C 40.6 °F /  4.8 °C 30.07 in /  1018.2 hPa South 2.3 mph /  3.7 km/h 1.7 mph /  2.7 km/h 85 % 0.00 in /  0 mm
06:54 45.1 °F /  7.3 °C 41.2 °F /  5.1 °C 30.07 in /  1018.2 hPa South 4.0 mph /  6.4 km/h 2.6 mph /  4.2 km/h 86 % 0.00 in /  0 mm
06:59 45.7 °F /  7.6 °C 41.8 °F /  5.4 °C 30.07 in /  1018.2 hPa South 5.0 mph /  8 km/h 4.0 mph /  6.4 km/h 86 % 0.00 in /  0 mm
07:04 46.3 °F /  7.9 °C 42.3 °F /  5.7 °C 30.07 in /  1018.2 hPa South 3.5 mph /  5.6 km/h 2.1 mph /  3.4 km/h 86 % 0.00 in /  0 mm
07:09 46.8 °F /  8.2 °C 42.5 °F /  5.8 °C 30.07 in /  1018.2 hPa North 2.3 mph /  3.7 km/h 1.5 mph /  2.4 km/h 85 % 0.00 in /  0 mm
07:14 47.4 °F /  8.6 °C 43.1 °F /  6.2 °C 30.07 in /  1018.2 hPa South 4.0 mph /  6.4 km/h 1.9 mph /  3.1 km/h 85 % 0.00 in /  0 mm
07:19 48.0 °F /  8.9 °C 43.4 °F /  6.3 °C 30.07 in /  1018.2 hPa South 4.6 mph /  7.4 km/h 1.5 mph /  2.4 km/h 84 % 0.00 in /  0 mm
07:24 48.4 °F /  9.1 °C 43.5 °F /  6.4 °C 30.08 in /  1018.5 hPa South 3.5 mph /  5.6 km/h 2.8 mph /  4.5 km/h 83 % 0.00 in /  0 mm
07:29 49.1 °F /  9.5 °C 44.2 °F /  6.8 °C 30.08 in /  1018.5 hPa South 4.0 mph /  6.4 km/h 2.6 mph /  4.2 km/h 83 % 0.00 in /  0 mm
07:34 49.5 °F /  9.7 °C 43.9 °F /  6.6 °C 30.08 in /  1018.5 hPa South 4.6 mph /  7.4 km/h 1.6 mph /  2.6 km/h 81 % 0.00 in /  0 mm
07:39 49.6 °F /  9.8 °C 44.0 °F /  6.7 °C 30.08 in /  1018.5 hPa South 3.5 mph /  5.6 km/h 3.4 mph /  5.5 km/h 81 % 0.00 in /  0 mm
07:44 50.1 °F /  10.1 °C 44.5 °F /  6.9 °C 30.09 in /  1018.8 hPa South 2.3 mph /  3.7 km/h 1.6 mph /  2.6 km/h 81 % 0.00 in /  0 mm
07:49 50.5 °F /  10.3 °C 44.6 °F /  7 °C 30.08 in /  1018.5 hPa South 4.6 mph /  7.4 km/h 2.5 mph /  4 km/h 80 % 0.00 in /  0 mm
07:54 50.9 °F /  10.5 °C 44.3 °F /  6.8 °C 30.09 in /  1018.8 hPa South 4.6 mph /  7.4 km/h 3.0 mph /  4.8 km/h 78 % 0.00 in /  0 mm
07:59 51.6 °F /  10.9 °C 45.0 °F /  7.2 °C 30.09 in /  1018.8 hPa South 5.8 mph /  9.3 km/h 4.0 mph /  6.4 km/h 78 % 0.00 in /  0 mm
08:04 52.0 °F /  11.1 °C 44.7 °F /  7.1 °C 30.09 in /  1018.8 hPa South 5.8 mph /  9.3 km/h 1.1 mph /  1.8 km/h 76 % 0.00 in /  0 mm
08:09 52.3 °F /  11.3 °C 45.0 °F /  7.2 °C 30.09 in /  1018.8 hPa South 5.8 mph /  9.3 km/h 2.6 mph /  4.2 km/h 76 % 0.00 in /  0 mm
08:14 53.0 °F /  11.7 °C 44.9 °F /  7.2 °C 30.09 in /  1018.8 hPa South 5.8 mph /  9.3 km/h 3.0 mph /  4.8 km/h 74 % 0.00 in /  0 mm
08:19 53.6 °F /  12 °C 45.2 °F /  7.3 °C 30.09 in /  1018.8 hPa South 6.0 mph /  9.7 km/h 4.9 mph /  7.9 km/h 73 % 0.00 in /  0 mm
08:24 53.7 °F /  12.1 °C 44.9 °F /  7.2 °C 30.09 in /  1018.8 hPa South 4.6 mph /  7.4 km/h 3.7 mph /  6 km/h 72 % 0.00 in /  0 mm
08:29 54.2 °F /  12.3 °C 45.4 °F /  7.4 °C 30.09 in /  1018.8 hPa South 5.8 mph /  9.3 km/h 2.8 mph /  4.5 km/h 72 % 0.00 in /  0 mm
08:34 54.5 °F /  12.5 °C 45.3 °F /  7.4 °C 30.09 in /  1018.8 hPa South 7.0 mph /  11.3 km/h 4.3 mph /  6.9 km/h 71 % 0.00 in /  0 mm
08:39 54.9 °F /  12.7 °C 45.3 °F /  7.4 °C 30.09 in /  1018.8 hPa South 7.0 mph /  11.3 km/h 5.4 mph /  8.7 km/h 70 % 0.00 in /  0 mm
08:44 55.3 °F /  12.9 °C 45.3 °F /  7.4 °C 30.09 in /  1018.8 hPa South 8.1 mph /  13 km/h 8.1 mph /  13 km/h 69 % 0.00 in /  0 mm
08:49 55.4 °F /  13 °C 45.0 °F /  7.2 °C 30.09 in /  1018.8 hPa South 5.8 mph /  9.3 km/h 3.3 mph /  5.3 km/h 68 % 0.00 in /  0 mm
08:54 56.0 °F /  13.3 °C 45.6 °F /  7.6 °C 30.08 in /  1018.5 hPa South 6.9 mph /  11.1 km/h 4.2 mph /  6.8 km/h 68 % 0.00 in /  0 mm
08:59 56.6 °F /  13.7 °C 45.4 °F /  7.4 °C 30.09 in /  1018.8 hPa South 11.5 mph /  18.5 km/h 8.5 mph /  13.7 km/h 66 % 0.00 in /  0 mm
09:04 57.0 °F /  13.9 °C 44.9 °F /  7.2 °C 30.09 in /  1018.8 hPa South 11.5 mph /  18.5 km/h 8.0 mph /  12.9 km/h 64 % 0.00 in /  0 mm
09:09 57.5 °F /  14.2 °C 45.0 °F /  7.2 °C 30.09 in /  1018.8 hPa SSE 10.4 mph /  16.7 km/h 4.9 mph /  7.9 km/h 63 % 0.00 in /  0 mm
09:14 58.0 °F /  14.4 °C 44.6 °F /  7 °C 30.09 in /  1018.8 hPa SSE 12.7 mph /  20.4 km/h 8.9 mph /  14.3 km/h 61 % 0.00 in /  0 mm
09:19 58.0 °F /  14.4 °C 44.6 °F /  7 °C 30.09 in /  1018.8 hPa SSE 10.4 mph /  16.7 km/h 7.1 mph /  11.4 km/h 61 % 0.00 in /  0 mm
09:24 58.0 °F /  14.4 °C 44.2 °F /  6.8 °C 30.09 in /  1018.8 hPa SE 12.7 mph /  20.4 km/h 8.7 mph /  14 km/h 60 % 0.00 in /  0 mm
09:29 58.2 °F /  14.6 °C 43.9 °F /  6.6 °C 30.09 in /  1018.8 hPa SSE 12.7 mph /  20.4 km/h 9.1 mph /  14.6 km/h 59 % 0.00 in /  0 mm
09:34 58.5 °F /  14.7 °C 44.2 °F /  6.8 °C 30.09 in /  1018.8 hPa SSE 11.5 mph /  18.5 km/h 8.7 mph /  14 km/h 59 % 0.00 in /  0 mm
09:39 58.7 °F /  14.8 °C 44.4 °F /  6.9 °C 30.08 in /  1018.5 hPa SE 15.0 mph /  24.1 km/h 6.5 mph /  10.5 km/h 59 % 0.00 in /  0 mm
09:44 58.8 °F /  14.9 °C 44.0 °F /  6.7 °C 30.08 in /  1018.5 hPa SSE 11.5 mph /  18.5 km/h 7.1 mph /  11.4 km/h 58 % 0.00 in /  0 mm
09:49 59.4 °F /  15.2 °C 44.2 °F /  6.8 °C 30.08 in /  1018.5 hPa SSE 17.3 mph /  27.8 km/h 8.1 mph /  13 km/h 57 % 0.00 in /  0 mm
09:54 59.1 °F /  15.1 °C 43.9 °F /  6.6 °C 30.08 in /  1018.5 hPa SSE 11.5 mph /  18.5 km/h 7.1 mph /  11.4 km/h 57 % 0.00 in /  0 mm
09:59 58.9 °F /  14.9 °C 43.7 °F /  6.5 °C 30.08 in /  1018.5 hPa SSE 13.8 mph /  22.2 km/h 9.9 mph /  15.9 km/h 57 % 0.00 in /  0 mm
10:04 59.6 °F /  15.3 °C 44.8 °F /  7.1 °C 30.07 in /  1018.2 hPa South 11.5 mph /  18.5 km/h 10.1 mph /  16.3 km/h 58 % 0.00 in /  0 mm
10:09 59.8 °F /  15.4 °C 43.6 °F /  6.4 °C 30.08 in /  1018.5 hPa SSE 12.0 mph /  19.3 km/h 8.5 mph /  13.7 km/h 55 % 0.00 in /  0 mm
10:14 59.7 °F /  15.4 °C 43.5 °F /  6.4 °C 30.08 in /  1018.5 hPa SSE 12.7 mph /  20.4 km/h 8.8 mph /  14.2 km/h 55 % 0.00 in /  0 mm
10:19 59.3 °F /  15.2 °C 42.6 °F /  5.9 °C 30.08 in /  1018.5 hPa SSE 13.8 mph /  22.2 km/h 9.5 mph /  15.3 km/h 54 % 0.00 in /  0 mm
10:24 59.5 °F /  15.3 °C 43.3 °F /  6.3 °C 30.08 in /  1018.5 hPa SSE 15.0 mph /  24.1 km/h 11.5 mph /  18.5 km/h 55 % 0.00 in /  0 mm
10:29 59.7 °F /  15.4 °C 43.5 °F /  6.4 °C 30.08 in /  1018.5 hPa SSE 8.1 mph /  13 km/h 5.5 mph /  8.9 km/h 55 % 0.00 in /  0 mm
10:34 59.9 °F /  15.5 °C 43.7 °F /  6.5 °C 30.08 in /  1018.5 hPa South 7.0 mph /  11.3 km/h 6.5 mph /  10.5 km/h 55 % 0.00 in /  0 mm
10:39 60.4 °F /  15.8 °C 43.7 °F /  6.5 °C 30.08 in /  1018.5 hPa SSE 9.0 mph /  14.5 km/h 7.2 mph /  11.6 km/h 54 % 0.00 in /  0 mm
10:44 60.9 °F /  16.1 °C 43.6 °F /  6.4 °C 30.08 in /  1018.5 hPa SE 15.0 mph /  24.1 km/h 8.1 mph /  13 km/h 53 % 0.00 in /  0 mm
10:49 61.5 °F /  16.4 °C 43.2 °F /  6.2 °C 30.08 in /  1018.5 hPa SE 8.1 mph /  13 km/h 4.5 mph /  7.2 km/h 51 % 0.00 in /  0 mm
10:54 61.6 °F /  16.4 °C 43.3 °F /  6.3 °C 30.07 in /  1018.2 hPa SSE 11.5 mph /  18.5 km/h 8.2 mph /  13.2 km/h 51 % 0.00 in /  0 mm
10:59 61.2 °F /  16.2 °C 43.4 °F /  6.3 °C 30.07 in /  1018.2 hPa SSE 13.8 mph /  22.2 km/h 9.7 mph /  15.6 km/h 52 % 0.00 in /  0 mm
11:04 61.2 °F /  16.2 °C 43.4 °F /  6.3 °C 30.07 in /  1018.2 hPa South 10.4 mph /  16.7 km/h 5.5 mph /  8.9 km/h 52 % 0.00 in /  0 mm
11:09 61.9 °F /  16.6 °C 44.6 °F /  7 °C 30.07 in /  1018.2 hPa SSE 11.5 mph /  18.5 km/h 7.1 mph /  11.4 km/h 53 % 0.00 in /  0 mm
11:14 62.4 °F /  16.9 °C 43.5 °F /  6.4 °C 30.07 in /  1018.2 hPa SSW 11.5 mph /  18.5 km/h 8.1 mph /  13 km/h 50 % 0.00 in /  0 mm
11:15 62.4 °F /  16.9 °C 43.0 °F /  6.1 °C 30.07 in /  1018.2 hPa SSW 11.5 mph /  18.5 km/h 7.4 mph /  11.9 km/h 49 % 0.00 in /  0 mm
15:29 72.7 °F /  22.6 °C 41.1 °F /  5.1 °C 29.99 in /  1015.5 hPa SE 13.0 mph /  20.9 km/h 6.6 mph /  10.6 km/h 32 % 0.00 in /  0 mm
15:34 72.7 °F /  22.6 °C 41.1 °F /  5.1 °C 29.99 in /  1015.5 hPa SSE 12.7 mph /  20.4 km/h 8.0 mph /  12.9 km/h 32 % 0.00 in /  0 mm
15:39 72.5 °F /  22.5 °C 41.0 °F /  5 °C 29.99 in /  1015.5 hPa South 9.2 mph /  14.8 km/h 8.2 mph /  13.2 km/h 32 % 0.00 in /  0 mm
15:44 73.0 °F /  22.8 °C 41.4 °F /  5.2 °C 29.99 in /  1015.5 hPa South 9.2 mph /  14.8 km/h 6.1 mph /  9.8 km/h 32 % 0.00 in /  0 mm
15:49 73.5 °F /  23.1 °C 41.0 °F /  5 °C 29.99 in /  1015.5 hPa SSE 7.0 mph /  11.3 km/h 4.7 mph /  7.6 km/h 31 % 0.00 in /  0 mm
15:54 74.2 °F /  23.4 °C 41.6 °F /  5.3 °C 29.99 in /  1015.5 hPa SE 8.0 mph /  12.9 km/h 7.6 mph /  12.2 km/h 31 % 0.00 in /  0 mm
15:59 73.9 °F /  23.3 °C 41.3 °F /  5.2 °C 29.99 in /  1015.5 hPa SE 8.1 mph /  13 km/h 5.5 mph /  8.9 km/h 31 % 0.00 in /  0 mm
16:04 73.3 °F /  22.9 °C 40.8 °F /  4.9 °C 29.99 in /  1015.5 hPa SSW 11.0 mph /  17.7 km/h 5.0 mph /  8 km/h 31 % 0.00 in /  0 mm
16:09 73.6 °F /  23.1 °C 41.1 °F /  5.1 °C 29.99 in /  1015.5 hPa South 10.4 mph /  16.7 km/h 6.4 mph /  10.3 km/h 31 % 0.00 in /  0 mm
16:14 73.5 °F /  23.1 °C 41.0 °F /  5 °C 29.99 in /  1015.5 hPa South 9.2 mph /  14.8 km/h 4.1 mph /  6.6 km/h 31 % 0.00 in /  0 mm
16:19 74.2 °F /  23.4 °C 41.6 °F /  5.3 °C 29.98 in /  1015.1 hPa SSE 8.1 mph /  13 km/h 3.8 mph /  6.1 km/h 31 % 0.00 in /  0 mm
16:24 74.7 °F /  23.7 °C 41.2 °F /  5.1 °C 29.98 in /  1015.1 hPa SSE 10.4 mph /  16.7 km/h 4.9 mph /  7.9 km/h 30 % 0.00 in /  0 mm
16:29 74.7 °F /  23.7 °C 40.3 °F /  4.6 °C 29.98 in /  1015.1 hPa South 11.5 mph /  18.5 km/h 8.4 mph /  13.5 km/h 29 % 0.00 in /  0 mm
16:34 74.7 °F /  23.7 °C 40.3 °F /  4.6 °C 29.98 in /  1015.1 hPa South 7.0 mph /  11.3 km/h 6.6 mph /  10.6 km/h 29 % 0.00 in /  0 mm
16:39 74.7 °F /  23.7 °C 40.3 °F /  4.6 °C 29.98 in /  1015.1 hPa South 8.0 mph /  12.9 km/h 6.0 mph /  9.7 km/h 29 % 0.00 in /  0 mm
16:44 74.6 °F /  23.7 °C 40.2 °F /  4.6 °C 29.98 in /  1015.1 hPa South 9.2 mph /  14.8 km/h 4.6 mph /  7.4 km/h 29 % 0.00 in /  0 mm
16:49 75.4 °F /  24.1 °C 41.8 °F /  5.4 °C 29.98 in /  1015.1 hPa SSE 10.4 mph /  16.7 km/h 5.3 mph /  8.5 km/h 30 % 0.00 in /  0 mm
16:54 75.3 °F /  24.1 °C 40.8 °F /  4.9 °C 29.97 in /  1014.8 hPa SSW 11.5 mph /  18.5 km/h 3.5 mph /  5.6 km/h 29 % 0.00 in /  0 mm
16:59 75.7 °F /  24.3 °C 41.2 °F /  5.1 °C 29.98 in /  1015.1 hPa SE 13.8 mph /  22.2 km/h 8.9 mph /  14.3 km/h 29 % 0.00 in /  0 mm
17:04 76.1 °F /  24.5 °C 40.6 °F /  4.8 °C 29.98 in /  1015.1 hPa SE 8.1 mph /  13 km/h 6.7 mph /  10.8 km/h 28 % 0.00 in /  0 mm
17:09 76.2 °F /  24.6 °C 39.8 °F /  4.3 °C 29.98 in /  1015.1 hPa SE 9.2 mph /  14.8 km/h 5.7 mph /  9.2 km/h 27 % 0.00 in /  0 mm
17:14 75.5 °F /  24.2 °C 41.0 °F /  5 °C 29.97 in /  1014.8 hPa SE 6.9 mph /  11.1 km/h 6.5 mph /  10.5 km/h 29 % 0.00 in /  0 mm
17:19 74.9 °F /  23.8 °C 41.4 °F /  5.2 °C 29.97 in /  1014.8 hPa SSE 6.9 mph /  11.1 km/h 3.2 mph /  5.1 km/h 30 % 0.00 in /  0 mm
17:24 75.1 °F /  23.9 °C 39.8 °F /  4.3 °C 29.97 in /  1014.8 hPa SSE 6.9 mph /  11.1 km/h 4.8 mph /  7.7 km/h 28 % 0.00 in /  0 mm
17:29 75.4 °F /  24.1 °C 40.0 °F /  4.4 °C 29.97 in /  1014.8 hPa SSE 5.8 mph /  9.3 km/h 1.9 mph /  3.1 km/h 28 % 0.00 in /  0 mm
17:34 75.5 °F /  24.2 °C 40.1 °F /  4.5 °C 29.97 in /  1014.8 hPa South 10.4 mph /  16.7 km/h 7.6 mph /  12.2 km/h 28 % 0.00 in /  0 mm
17:39 76.0 °F /  24.4 °C 39.6 °F /  4.2 °C 29.96 in /  1014.4 hPa SSE 8.1 mph /  13 km/h 5.9 mph /  9.5 km/h 27 % 0.00 in /  0 mm
17:44 76.4 °F /  24.7 °C 39.0 °F /  3.9 °C 29.96 in /  1014.4 hPa SSE 6.9 mph /  11.1 km/h 6.5 mph /  10.5 km/h 26 % 0.00 in /  0 mm
17:49 76.7 °F /  24.8 °C 39.2 °F /  4 °C 29.96 in /  1014.4 hPa SSE 5.0 mph /  8 km/h 2.4 mph /  3.9 km/h 26 % 0.00 in /  0 mm
17:54 77.2 °F /  25.1 °C 39.6 °F /  4.2 °C 29.96 in /  1014.4 hPa SSE 12.7 mph /  20.4 km/h 9.1 mph /  14.6 km/h 26 % 0.00 in /  0 mm
17:59 77.3 °F /  25.2 °C 40.7 °F /  4.8 °C 29.96 in /  1014.4 hPa SSE 9.2 mph /  14.8 km/h 5.1 mph /  8.2 km/h 27 % 0.00 in /  0 mm
18:04 76.9 °F /  24.9 °C 40.4 °F /  4.7 °C 29.96 in /  1014.4 hPa South 12.0 mph /  19.3 km/h 8.8 mph /  14.2 km/h 27 % 0.00 in /  0 mm
18:09 76.3 °F /  24.6 °C 40.8 °F /  4.9 °C 29.96 in /  1014.4 hPa South 11.5 mph /  18.5 km/h 5.2 mph /  8.4 km/h 28 % 0.00 in /  0 mm
18:14 76.3 °F /  24.6 °C 40.8 °F /  4.9 °C 29.96 in /  1014.4 hPa South 12.0 mph /  19.3 km/h 5.9 mph /  9.5 km/h 28 % 0.00 in /  0 mm
18:19 76.3 °F /  24.6 °C 39.8 °F /  4.3 °C 29.96 in /  1014.4 hPa SSE 11.5 mph /  18.5 km/h 8.7 mph /  14 km/h 27 % 0.00 in /  0 mm
18:24 76.1 °F /  24.5 °C 39.7 °F /  4.3 °C 29.96 in /  1014.4 hPa SE 10.0 mph /  16.1 km/h 9.1 mph /  14.6 km/h 27 % 0.00 in /  0 mm
18:29 75.9 °F /  24.4 °C 40.4 °F /  4.7 °C 29.96 in /  1014.4 hPa SSE 12.7 mph /  20.4 km/h 5.8 mph /  9.3 km/h 28 % 0.00 in /  0 mm
18:34 75.7 °F /  24.3 °C 39.3 °F /  4.1 °C 29.96 in /  1014.4 hPa South 13.8 mph /  22.2 km/h 5.9 mph /  9.5 km/h 27 % 0.00 in /  0 mm
18:39 75.4 °F /  24.1 °C 39.1 °F /  3.9 °C 29.96 in /  1014.4 hPa SSW 11.5 mph /  18.5 km/h 5.8 mph /  9.3 km/h 27 % 0.00 in /  0 mm
18:44 75.0 °F /  23.9 °C 38.7 °F /  3.7 °C 29.96 in /  1014.4 hPa SSW 8.1 mph /  13 km/h 4.7 mph /  7.6 km/h 27 % 0.00 in /  0 mm
18:49 74.7 °F /  23.7 °C 38.5 °F /  3.6 °C 29.96 in /  1014.4 hPa South 9.2 mph /  14.8 km/h 5.7 mph /  9.2 km/h 27 % 0.00 in /  0 mm
18:54 74.7 °F /  23.7 °C 39.4 °F /  4.1 °C 29.96 in /  1014.4 hPa SSE 10.4 mph /  16.7 km/h 7.2 mph /  11.6 km/h 28 % 0.00 in /  0 mm
18:59 74.8 °F /  23.8 °C 39.5 °F /  4.2 °C 29.96 in /  1014.4 hPa South 10.0 mph /  16.1 km/h 6.4 mph /  10.3 km/h 28 % 0.00 in /  0 mm
19:04 74.8 °F /  23.8 °C 38.6 °F /  3.7 °C 29.96 in /  1014.4 hPa South 11.5 mph /  18.5 km/h 5.7 mph /  9.2 km/h 27 % 0.00 in /  0 mm
19:09 74.9 °F /  23.8 °C 38.7 °F /  3.7 °C 29.96 in /  1014.4 hPa SSW 11.5 mph /  18.5 km/h 7.8 mph /  12.6 km/h 27 % 0.00 in /  0 mm
19:14 74.9 °F /  23.8 °C 39.6 °F /  4.2 °C 29.96 in /  1014.4 hPa SSE 9.2 mph /  14.8 km/h 7.9 mph /  12.7 km/h 28 % 0.00 in /  0 mm
19:19 75.0 °F /  23.9 °C 39.7 °F /  4.3 °C 29.96 in /  1014.4 hPa SSW 11.5 mph /  18.5 km/h 7.9 mph /  12.7 km/h 28 % 0.00 in /  0 mm
19:24 74.7 °F /  23.7 °C 38.5 °F /  3.6 °C 29.97 in /  1014.8 hPa South 9.2 mph /  14.8 km/h 6.0 mph /  9.7 km/h 27 % 0.00 in /  0 mm
19:29 74.5 °F /  23.6 °C 39.2 °F /  4 °C 29.97 in /  1014.8 hPa SSE 11.5 mph /  18.5 km/h 5.8 mph /  9.3 km/h 28 % 0.00 in /  0 mm
19:34 74.4 °F /  23.6 °C 39.2 °F /  4 °C 29.97 in /  1014.8 hPa SSE 8.1 mph /  13 km/h 4.3 mph /  6.9 km/h 28 % 0.00 in /  0 mm
19:39 74.4 °F /  23.6 °C 39.2 °F /  4 °C 29.97 in /  1014.8 hPa SE 13.8 mph /  22.2 km/h 9.7 mph /  15.6 km/h 28 % 0.00 in /  0 mm
19:44 74.3 °F /  23.5 °C 38.1 °F /  3.4 °C 29.97 in /  1014.8 hPa SSE 10.4 mph /  16.7 km/h 7.2 mph /  11.6 km/h 27 % 0.00 in /  0 mm
19:49 73.9 °F /  23.3 °C 38.7 °F /  3.7 °C 29.97 in /  1014.8 hPa SSE 9.2 mph /  14.8 km/h 6.1 mph /  9.8 km/h 28 % 0.00 in /  0 mm
19:54 73.3 °F /  22.9 °C 39.1 °F /  3.9 °C 29.97 in /  1014.8 hPa SSE 11.5 mph /  18.5 km/h 7.4 mph /  11.9 km/h 29 % 0.00 in /  0 mm
19:59 72.7 °F /  22.6 °C 40.3 °F /  4.6 °C 29.98 in /  1015.1 hPa SSE 6.9 mph /  11.1 km/h 5.6 mph /  9 km/h 31 % 0.00 in /  0 mm
20:04 72.0 °F /  22.2 °C 39.7 °F /  4.3 °C 29.98 in /  1015.1 hPa SSE 10.4 mph /  16.7 km/h 6.5 mph /  10.5 km/h 31 % 0.00 in /  0 mm
20:09 71.5 °F /  21.9 °C 40.1 °F /  4.5 °C 29.98 in /  1015.1 hPa SSE 6.0 mph /  9.7 km/h 6.3 mph /  10.1 km/h 32 % 0.00 in /  0 mm
20:14 71.3 °F /  21.8 °C 40.7 °F /  4.8 °C 29.98 in /  1015.1 hPa SSE 6.9 mph /  11.1 km/h 3.2 mph /  5.1 km/h 33 % 0.00 in /  0 mm
20:19 71.2 °F /  21.8 °C 40.6 °F /  4.8 °C 29.98 in /  1015.1 hPa SSE 8.1 mph /  13 km/h 4.5 mph /  7.2 km/h 33 % 0.00 in /  0 mm
20:24 71.0 °F /  21.7 °C 40.4 °F /  4.7 °C 29.98 in /  1015.1 hPa SSE 5.8 mph /  9.3 km/h 4.0 mph /  6.4 km/h 33 % 0.00 in /  0 mm
20:29 70.6 °F /  21.4 °C 40.9 °F /  4.9 °C 29.98 in /  1015.1 hPa South 10.4 mph /  16.7 km/h 7.6 mph /  12.2 km/h 34 % 0.00 in /  0 mm
20:34 70.2 °F /  21.2 °C 40.5 °F /  4.7 °C 29.98 in /  1015.1 hPa South 9.2 mph /  14.8 km/h 6.6 mph /  10.6 km/h 34 % 0.00 in /  0 mm
20:39 69.8 °F /  21 °C 40.9 °F /  4.9 °C 29.98 in /  1015.1 hPa SSE 9.2 mph /  14.8 km/h 5.7 mph /  9.2 km/h 35 % 0.00 in /  0 mm
20:44 69.3 °F /  20.7 °C 41.2 °F /  5.1 °C 29.98 in /  1015.1 hPa SSE 8.1 mph /  13 km/h 5.3 mph /  8.5 km/h 36 % 0.00 in /  0 mm
20:49 68.9 °F /  20.5 °C 41.5 °F /  5.3 °C 29.99 in /  1015.5 hPa SSE 10.4 mph /  16.7 km/h 4.6 mph /  7.4 km/h 37 % 0.00 in /  0 mm
20:54 68.5 °F /  20.3 °C 41.2 °F /  5.1 °C 29.99 in /  1015.5 hPa North 5.8 mph /  9.3 km/h 4.8 mph /  7.7 km/h 37 % 0.00 in /  0 mm
20:59 68.2 °F /  20.1 °C 40.9 °F /  4.9 °C 29.99 in /  1015.5 hPa SSE 8.1 mph /  13 km/h 6.4 mph /  10.3 km/h 37 % 0.00 in /  0 mm
21:04 67.9 °F /  19.9 °C 41.3 °F /  5.2 °C 29.99 in /  1015.5 hPa SSE 6.9 mph /  11.1 km/h 4.5 mph /  7.2 km/h 38 % 0.00 in /  0 mm
21:09 67.6 °F /  19.8 °C 41.1 °F /  5.1 °C 29.99 in /  1015.5 hPa South 5.8 mph /  9.3 km/h 5.8 mph /  9.3 km/h 38 % 0.00 in /  0 mm
21:14 67.3 °F /  19.6 °C 40.8 °F /  4.9 °C 29.99 in /  1015.5 hPa South 6.9 mph /  11.1 km/h 4.4 mph /  7.1 km/h 38 % 0.00 in /  0 mm
21:19 67.0 °F /  19.4 °C 41.2 °F /  5.1 °C 29.99 in /  1015.5 hPa South 5.8 mph /  9.3 km/h 2.4 mph /  3.9 km/h 39 % 0.00 in /  0 mm
21:24 66.7 °F /  19.3 °C 41.6 °F /  5.3 °C 29.99 in /  1015.5 hPa South 6.9 mph /  11.1 km/h 4.5 mph /  7.2 km/h 40 % 0.00 in /  0 mm
21:29 66.5 °F /  19.2 °C 42.1 °F /  5.6 °C 29.99 in /  1015.5 hPa South 8.1 mph /  13 km/h 4.6 mph /  7.4 km/h 41 % 0.00 in /  0 mm
21:34 66.1 °F /  18.9 °C 42.3 °F /  5.7 °C 29.99 in /  1015.5 hPa South 5.8 mph /  9.3 km/h 3.0 mph /  4.8 km/h 42 % 0.00 in /  0 mm
21:39 65.8 °F /  18.8 °C 42.7 °F /  5.9 °C 29.99 in /  1015.5 hPa South 6.9 mph /  11.1 km/h 4.7 mph /  7.6 km/h 43 % 0.00 in /  0 mm
21:44 65.4 °F /  18.6 °C 43.5 °F /  6.4 °C 30.00 in /  1015.8 hPa South 8.1 mph /  13 km/h 5.4 mph /  8.7 km/h 45 % 0.00 in /  0 mm
21:49 65.1 °F /  18.4 °C 43.8 °F /  6.6 °C 30.00 in /  1015.8 hPa South 6.0 mph /  9.7 km/h 6.8 mph /  10.9 km/h 46 % 0.00 in /  0 mm
21:54 64.6 °F /  18.1 °C 44.5 °F /  6.9 °C 30.00 in /  1015.8 hPa South 6.9 mph /  11.1 km/h 5.2 mph /  8.4 km/h 48 % 0.00 in /  0 mm
21:59 64.1 °F /  17.8 °C 45.1 °F /  7.3 °C 30.00 in /  1015.8 hPa South 9.2 mph /  14.8 km/h 5.5 mph /  8.9 km/h 50 % 0.00 in /  0 mm
22:04 63.6 °F /  17.6 °C 45.1 °F /  7.3 °C 30.00 in /  1015.8 hPa South 6.9 mph /  11.1 km/h 3.8 mph /  6.1 km/h 51 % 0.00 in /  0 mm
22:09 63.2 °F /  17.3 °C 45.3 °F /  7.4 °C 30.00 in /  1015.8 hPa South 6.9 mph /  11.1 km/h 6.5 mph /  10.5 km/h 52 % 0.00 in /  0 mm
22:14 62.8 °F /  17.1 °C 45.4 °F /  7.4 °C 30.00 in /  1015.8 hPa South 10.4 mph /  16.7 km/h 6.8 mph /  10.9 km/h 53 % 0.00 in /  0 mm
22:19 62.4 °F /  16.9 °C 45.5 °F /  7.5 °C 30.00 in /  1015.8 hPa South 11.5 mph /  18.5 km/h 4.7 mph /  7.6 km/h 54 % 0.00 in /  0 mm
22:24 62.0 °F /  16.7 °C 45.6 °F /  7.6 °C 30.00 in /  1015.8 hPa South 8.0 mph /  12.9 km/h 5.4 mph /  8.7 km/h 55 % 0.00 in /  0 mm
22:29 61.6 °F /  16.4 °C 45.3 °F /  7.4 °C 30.01 in /  1016.1 hPa South 6.9 mph /  11.1 km/h 5.1 mph /  8.2 km/h 55 % 0.00 in /  0 mm
22:34 61.3 °F /  16.3 °C 45.5 °F /  7.5 °C 30.01 in /  1016.1 hPa South 5.8 mph /  9.3 km/h 3.1 mph /  5 km/h 56 % 0.00 in /  0 mm
22:39 61.0 °F /  16.1 °C 45.7 °F /  7.6 °C 30.01 in /  1016.1 hPa South 6.9 mph /  11.1 km/h 5.4 mph /  8.7 km/h 57 % 0.00 in /  0 mm
22:44 60.7 °F /  15.9 °C 45.8 °F /  7.7 °C 30.01 in /  1016.1 hPa South 7.0 mph /  11.3 km/h 4.4 mph /  7.1 km/h 58 % 0.00 in /  0 mm
22:49 60.5 °F /  15.8 °C 45.6 °F /  7.6 °C 30.01 in /  1016.1 hPa South 9.2 mph /  14.8 km/h 4.2 mph /  6.8 km/h 58 % 0.00 in /  0 mm
22:54 60.3 °F /  15.7 °C 45.9 °F /  7.7 °C 30.01 in /  1016.1 hPa South 6.9 mph /  11.1 km/h 4.6 mph /  7.4 km/h 59 % 0.00 in /  0 mm
22:59 60.0 °F /  15.6 °C 45.6 °F /  7.6 °C 30.01 in /  1016.1 hPa South 9.2 mph /  14.8 km/h 4.2 mph /  6.8 km/h 59 % 0.00 in /  0 mm
23:04 59.8 °F /  15.4 °C 45.9 °F /  7.7 °C 30.01 in /  1016.1 hPa South 10.4 mph /  16.7 km/h 4.9 mph /  7.9 km/h 60 % 0.00 in /  0 mm
23:09 59.7 °F /  15.4 °C 45.8 °F /  7.7 °C 30.01 in /  1016.1 hPa South 6.9 mph /  11.1 km/h 2.6 mph /  4.2 km/h 60 % 0.00 in /  0 mm
23:14 59.5 °F /  15.3 °C 46.0 °F /  7.8 °C 30.01 in /  1016.1 hPa South 9.2 mph /  14.8 km/h 7.3 mph /  11.7 km/h 61 % 0.00 in /  0 mm
23:19 59.4 °F /  15.2 °C 45.9 °F /  7.7 °C 30.01 in /  1016.1 hPa South 8.1 mph /  13 km/h 4.2 mph /  6.8 km/h 61 % 0.00 in /  0 mm
23:24 59.3 °F /  15.2 °C 46.3 °F /  7.9 °C 30.01 in /  1016.1 hPa North 10.4 mph /  16.7 km/h 6.8 mph /  10.9 km/h 62 % 0.00 in /  0 mm
23:29 59.2 °F /  15.1 °C 46.2 °F /  7.9 °C 30.01 in /  1016.1 hPa South 6.9 mph /  11.1 km/h 4.3 mph /  6.9 km/h 62 % 0.00 in /  0 mm
23:34 59.0 °F /  15 °C 46.4 °F /  8 °C 30.00 in /  1015.8 hPa South 6.9 mph /  11.1 km/h 5.5 mph /  8.9 km/h 63 % 0.00 in /  0 mm
23:39 58.9 °F /  14.9 °C 46.3 °F /  7.9 °C 30.00 in /  1015.8 hPa South 6.0 mph /  9.7 km/h 5.5 mph /  8.9 km/h 63 % 0.00 in /  0 mm
23:44 58.9 °F /  14.9 °C 46.3 °F /  7.9 °C 30.00 in /  1015.8 hPa North 6.9 mph /  11.1 km/h 5.2 mph /  8.4 km/h 63 % 0.00 in /  0 mm
23:49 58.8 °F /  14.9 °C 46.6 °F /  8.1 °C 30.00 in /  1015.8 hPa South 6.9 mph /  11.1 km/h 4.7 mph /  7.6 km/h 64 % 0.00 in /  0 mm
23:54 58.8 °F /  14.9 °C 46.6 °F /  8.1 °C 30.00 in /  1015.8 hPa South 8.1 mph /  13 km/h 3.5 mph /  5.6 km/h 64 % 0.00 in /  0 mm
23:59 58.7 °F /  14.8 °C 46.5 °F /  8.1 °C 30.00 in /  1015.8 hPa South 6.9 mph /  11.1 km/h 4.8 mph /  7.7 km/h 64 % 0.00 in /  0 mm
Ararat Weather
Compliments of Weather Underground - 2 mb
Click here to send mail.


ABOUT

Live weather data from Ararat, Victoria, Australia, 3377
Data uploaded from Cumulus every 5 minutes to Weather Underground.
This site then downloads the raw data for formatting and display.
Metric and imperial data can be displayed. Graphs and historical data available.
Includes Sun and Moon times and rain image live from BOM.

Check out Ararat Weather on Facebook, Twitter and Google +

Help support ongoing costs by checking out the ads





Follow @AraratWeather